CGC weather

Crystal River Airport
Crystal River, Florida, United States

Public forecast

Using degrees Fahrenheit for public forecast. Weather courtesy of forecast.io.

METAR (pilot weather report)

Retrieved 2019/04/23 18:15 UTC (0 seconds ago):

KCGC 231815Z AUTO 31006KT 10SM CLR 27/15 A3011 RMK AO2

TAF (pilot weather forecast)

Closest forecast is Leesburg International Airport, 40.2 nm (74.4 km) E. Retrieved 2019/04/23 18:24 UTC (0 seconds ago):

TAF KLEE 231723Z 2318/2418 VRB04KT P6SM FEW050 FM232100 07006KT P6SM FEW045 FM240100 VRB03KT P6SM FEW250 FM241500 17004KT P6SM FEW040 SCT250